sensor_id;sensor_type;location;lat;lon;timestamp;P1;durP1;ratioP1;P2;durP2;ratioP2
14799;SDS011;7491;57.750;11.970;2024-01-16T06:54:56;3.85;;;2.42;;
14799;SDS011;7491;57.750;11.970;2024-01-16T09:50:42;4.57;;;1.43;;
14799;SDS011;7491;57.750;11.970;2024-01-16T09:53:13;3.57;;;1.63;;
14799;SDS011;7491;57.750;11.970;2024-01-16T09:55:49;1.60;;;1.47;;
14799;SDS011;7491;57.750;11.970;2024-01-16T10:15:36;7.67;;;2.20;;
14799;SDS011;7491;57.750;11.970;2024-01-16T10:28:39;3.00;;;1.67;;
14799;SDS011;7491;57.750;11.970;2024-01-16T10:31:58;5.70;;;1.67;;
14799;SDS011;7491;57.750;11.970;2024-01-16T10:35:22;3.13;;;1.97;;
14799;SDS011;7491;57.750;11.970;2024-01-16T10:38:21;5.30;;;2.13;;
14799;SDS011;7491;57.750;11.970;2024-01-16T10:41:04;4.20;;;1.63;;
14799;SDS011;7491;57.750;11.970;2024-01-16T10:46:59;3.40;;;1.70;;
14799;SDS011;7491;57.750;11.970;2024-01-16T10:52:46;6.77;;;3.17;;
14799;SDS011;7491;57.750;11.970;2024-01-16T10:55:20;4.07;;;2.27;;
14799;SDS011;7491;57.750;11.970;2024-01-16T10:58:23;6.93;;;2.83;;
14799;SDS011;7491;57.750;11.970;2024-01-16T11:01:24;33.80;;;13.57;;
14799;SDS011;7491;57.750;11.970;2024-01-16T11:03:52;27.90;;;11.03;;
14799;SDS011;7491;57.750;11.970;2024-01-16T11:06:24;77.73;;;19.63;;
14799;SDS011;7491;57.750;11.970;2024-01-16T11:08:54;76.03;;;19.73;;
14799;SDS011;7491;57.750;11.970;2024-01-16T11:11:24;41.47;;;10.00;;
14799;SDS011;7491;57.750;11.970;2024-01-16T11:14:09;28.80;;;8.47;;
14799;SDS011;7491;57.750;11.970;2024-01-16T11:16:41;20.20;;;7.27;;
14799;SDS011;7491;57.750;11.970;2024-01-16T11:19:13;22.87;;;7.70;;
14799;SDS011;7491;57.750;11.970;2024-01-16T11:21:46;25.27;;;8.83;;
14799;SDS011;7491;57.750;11.970;2024-01-16T11:24:14;50.90;;;13.47;;
14799;SDS011;7491;57.750;11.970;2024-01-16T11:26:43;37.20;;;12.37;;
14799;SDS011;7491;57.750;11.970;2024-01-16T11:32:03;38.50;;;13.47;;
14799;SDS011;7491;57.750;11.970;2024-01-16T11:37:26;33.73;;;11.77;;
14799;SDS011;7491;57.750;11.970;2024-01-16T11:42:54;30.80;;;12.27;;
14799;SDS011;7491;57.750;11.970;2024-01-16T11:48:25;13.80;;;6.40;;
14799;SDS011;7491;57.750;11.970;2024-01-16T11:50:52;46.07;;;13.87;;
14799;SDS011;7491;57.750;11.970;2024-01-16T11:53:32;75.33;;;19.30;;
14799;SDS011;7491;57.750;11.970;2024-01-16T11:56:02;115.57;;;27.17;;
14799;SDS011;7491;57.750;11.970;2024-01-16T11:58:44;56.73;;;16.83;;
14799;SDS011;7491;57.750;11.970;2024-01-16T12:01:14;20.33;;;6.40;;
14799;SDS011;7491;57.750;11.970;2024-01-16T12:03:42;93.17;;;25.00;;
14799;SDS011;7491;57.750;11.970;2024-01-16T12:06:08;202.60;;;46.03;;
14799;SDS011;7491;57.750;11.970;2024-01-16T12:08:42;94.90;;;25.97;;
14799;SDS011;7491;57.750;11.970;2024-01-16T12:11:08;135.90;;;38.93;;
14799;SDS011;7491;57.750;11.970;2024-01-16T12:13:34;14.37;;;6.30;;
14799;SDS011;7491;57.750;11.970;2024-01-16T12:16:02;10.00;;;4.00;;
14799;SDS011;7491;57.750;11.970;2024-01-16T12:18:30;23.83;;;8.50;;
14799;SDS011;7491;57.750;11.970;2024-01-16T12:20:56;22.53;;;6.47;;
14799;SDS011;7491;57.750;11.970;2024-01-16T12:23:23;7.50;;;2.90;;
14799;SDS011;7491;57.750;11.970;2024-01-16T12:25:51;6.33;;;2.43;;
14799;SDS011;7491;57.750;11.970;2024-01-16T12:28:20;12.10;;;4.60;;
14799;SDS011;7491;57.750;11.970;2024-01-16T12:30:48;10.67;;;3.43;;
14799;SDS011;7491;57.750;11.970;2024-01-16T12:33:20;5.30;;;1.93;;
14799;SDS011;7491;57.750;11.970;2024-01-16T12:35:48;15.13;;;7.20;;
14799;SDS011;7491;57.750;11.970;2024-01-16T12:38:15;4.37;;;2.07;;
14799;SDS011;7491;57.750;11.970;2024-01-16T12:40:43;1.70;;;1.20;;
14799;SDS011;7491;57.750;11.970;2024-01-16T12:43:12;1.93;;;1.30;;
14799;SDS011;7491;57.750;11.970;2024-01-16T12:45:39;2.17;;;1.13;;
14799;SDS011;7491;57.750;11.970;2024-01-16T12:48:06;2.43;;;1.07;;
14799;SDS011;7491;57.750;11.970;2024-01-16T12:50:34;3.50;;;1.27;;
14799;SDS011;7491;57.750;11.970;2024-01-16T12:53:02;0.87;;;0.87;;
14799;SDS011;7491;57.750;11.970;2024-01-16T12:55:30;2.57;;;1.57;;
14799;SDS011;7491;57.750;11.970;2024-01-16T12:58:13;5.20;;;2.57;;
14799;SDS011;7491;57.750;11.970;2024-01-16T13:00:40;2.20;;;1.53;;
14799;SDS011;7491;57.750;11.970;2024-01-16T13:03:07;5.90;;;2.30;;
14799;SDS011;7491;57.750;11.970;2024-01-16T13:05:35;35.37;;;12.17;;
14799;SDS011;7491;57.750;11.970;2024-01-16T13:08:02;26.63;;;9.00;;
14799;SDS011;7491;57.750;11.970;2024-01-16T13:10:28;14.40;;;4.83;;
14799;SDS011;7491;57.750;11.970;2024-01-16T13:13:10;15.37;;;5.97;;
14799;SDS011;7491;57.750;11.970;2024-01-16T13:15:38;54.03;;;15.17;;
14799;SDS011;7491;57.750;11.970;2024-01-16T13:18:04;26.87;;;7.97;;
14799;SDS011;7491;57.750;11.970;2024-01-16T13:20:31;26.43;;;7.47;;
14799;SDS011;7491;57.750;11.970;2024-01-16T13:23:00;34.33;;;13.53;;
14799;SDS011;7491;57.750;11.970;2024-01-16T13:25:27;45.63;;;16.50;;
14799;SDS011;7491;57.750;11.970;2024-01-16T13:27:53;11.52;;;5.60;;
14799;SDS011;7491;57.750;11.970;2024-01-16T13:30:20;41.17;;;13.13;;
14799;SDS011;7491;57.750;11.970;2024-01-16T13:32:47;13.70;;;5.20;;
14799;SDS011;7491;57.750;11.970;2024-01-16T13:35:13;5.10;;;3.03;;
14799;SDS011;7491;57.750;11.970;2024-01-16T13:37:40;3.87;;;1.67;;
14799;SDS011;7491;57.750;11.970;2024-01-16T13:40:08;8.20;;;3.00;;
14799;SDS011;7491;57.750;11.970;2024-01-16T13:42:37;4.10;;;2.13;;
14799;SDS011;7491;57.750;11.970;2024-01-16T13:45:05;18.27;;;6.73;;
14799;SDS011;7491;57.750;11.970;2024-01-16T13:47:33;2.97;;;1.87;;
14799;SDS011;7491;57.750;11.970;2024-01-16T13:50:04;17.77;;;5.10;;
14799;SDS011;7491;57.750;11.970;2024-01-16T13:52:31;12.17;;;5.53;;
14799;SDS011;7491;57.750;11.970;2024-01-16T13:54:58;57.27;;;19.57;;
14799;SDS011;7491;57.750;11.970;2024-01-16T13:57:28;3.23;;;2.80;;
14799;SDS011;7491;57.750;11.970;2024-01-16T13:59:55;33.50;;;9.20;;
14799;SDS011;7491;57.750;11.970;2024-01-16T14:02:21;18.00;;;8.77;;
14799;SDS011;7491;57.750;11.970;2024-01-16T14:04:48;12.30;;;3.77;;
14799;SDS011;7491;57.750;11.970;2024-01-16T14:07:15;13.53;;;4.70;;
14799;SDS011;7491;57.750;11.970;2024-01-16T14:09:41;4.73;;;2.53;;
14799;SDS011;7491;57.750;11.970;2024-01-16T14:12:08;2.10;;;1.20;;
14799;SDS011;7491;57.750;11.970;2024-01-16T14:14:36;13.07;;;6.00;;
14799;SDS011;7491;57.750;11.970;2024-01-16T14:17:06;36.67;;;13.87;;
14799;SDS011;7491;57.750;11.970;2024-01-16T14:19:34;6.03;;;2.33;;
14799;SDS011;7491;57.750;11.970;2024-01-16T14:22:01;6.87;;;3.03;;
14799;SDS011;7491;57.750;11.970;2024-01-16T14:24:27;4.13;;;2.30;;
14799;SDS011;7491;57.750;11.970;2024-01-16T14:26:54;2.43;;;2.10;;
14799;SDS011;7491;57.750;11.970;2024-01-16T14:29:21;3.60;;;1.57;;
14799;SDS011;7491;57.750;11.970;2024-01-16T14:31:50;3.03;;;1.80;;
14799;SDS011;7491;57.750;11.970;2024-01-16T14:34:17;5.97;;;1.90;;
14799;SDS011;7491;57.750;11.970;2024-01-16T14:36:44;1.20;;;1.07;;
14799;SDS011;7491;57.750;11.970;2024-01-16T14:39:11;2.40;;;1.63;;
14799;SDS011;7491;57.750;11.970;2024-01-16T14:41:42;2.00;;;1.60;;
14799;SDS011;7491;57.750;11.970;2024-01-16T14:44:09;3.00;;;2.10;;
14799;SDS011;7491;57.750;11.970;2024-01-16T14:46:36;2.70;;;2.47;;
14799;SDS011;7491;57.750;11.970;2024-01-16T14:49:04;1.83;;;0.93;;
14799;SDS011;7491;57.750;11.970;2024-01-16T14:51:30;2.77;;;1.70;;
14799;SDS011;7491;57.750;11.970;2024-01-16T14:53:57;1.20;;;1.10;;
14799;SDS011;7491;57.750;11.970;2024-01-16T14:56:26;0.77;;;0.70;;
14799;SDS011;7491;57.750;11.970;2024-01-16T14:58:53;1.13;;;0.80;;
14799;SDS011;7491;57.750;11.970;2024-01-16T15:01:20;1.70;;;0.90;;
14799;SDS011;7491;57.750;11.970;2024-01-16T15:03:46;1.73;;;1.13;;
14799;SDS011;7491;57.750;11.970;2024-01-16T15:06:15;1.37;;;1.00;;
14799;SDS011;7491;57.750;11.970;2024-01-16T15:08:42;1.60;;;1.20;;
14799;SDS011;7491;57.750;11.970;2024-01-16T15:11:08;2.77;;;1.00;;
14799;SDS011;7491;57.750;11.970;2024-01-16T15:13:36;3.53;;;1.20;;
14799;SDS011;7491;57.750;11.970;2024-01-16T15:16:03;1.80;;;1.07;;
14799;SDS011;7491;57.750;11.970;2024-01-16T15:18:30;3.13;;;1.60;;
14799;SDS011;7491;57.750;11.970;2024-01-16T15:20:57;1.73;;;1.27;;
14799;SDS011;7491;57.750;11.970;2024-01-16T15:23:27;0.93;;;0.70;;
14799;SDS011;7491;57.750;11.970;2024-01-16T15:25:54;1.23;;;1.10;;
14799;SDS011;7491;57.750;11.970;2024-01-16T15:28:25;0.80;;;0.80;;
14799;SDS011;7491;57.750;11.970;2024-01-16T15:30:52;1.43;;;0.80;;
14799;SDS011;7491;57.750;11.970;2024-01-16T15:33:18;1.23;;;1.10;;
14799;SDS011;7491;57.750;11.970;2024-01-16T15:35:45;3.60;;;1.10;;
14799;SDS011;7491;57.750;11.970;2024-01-16T15:38:12;2.33;;;0.83;;
14799;SDS011;7491;57.750;11.970;2024-01-16T15:40:40;5.13;;;1.37;;
14799;SDS011;7491;57.750;11.970;2024-01-16T15:43:06;2.50;;;1.17;;
14799;SDS011;7491;57.750;11.970;2024-01-16T15:45:33;1.03;;;0.90;;
14799;SDS011;7491;57.750;11.970;2024-01-16T15:47:59;2.30;;;1.03;;
14799;SDS011;7491;57.750;11.970;2024-01-16T15:50:26;1.30;;;1.00;;
14799;SDS011;7491;57.750;11.970;2024-01-16T15:52:53;3.13;;;0.80;;
14799;SDS011;7491;57.750;11.970;2024-01-16T15:55:20;1.00;;;0.77;;
14799;SDS011;7491;57.750;11.970;2024-01-16T15:57:48;0.93;;;0.70;;
14799;SDS011;7491;57.750;11.970;2024-01-16T16:00:15;1.83;;;1.00;;
14799;SDS011;7491;57.750;11.970;2024-01-16T16:02:42;1.13;;;0.60;;
14799;SDS011;7491;57.750;11.970;2024-01-16T16:05:12;1.50;;;0.70;;
14799;SDS011;7491;57.750;11.970;2024-01-16T16:07:38;1.63;;;1.27;;
14799;SDS011;7491;57.750;11.970;2024-01-16T16:10:06;3.20;;;1.77;;
14799;SDS011;7491;57.750;11.970;2024-01-16T16:12:33;1.23;;;0.50;;
14799;SDS011;7491;57.750;11.970;2024-01-16T16:15:03;1.40;;;1.10;;
14799;SDS011;7491;57.750;11.970;2024-01-16T16:17:30;2.43;;;0.80;;
14799;SDS011;7491;57.750;11.970;2024-01-16T16:19:56;4.10;;;1.77;;
14799;SDS011;7491;57.750;11.970;2024-01-16T16:22:23;1.40;;;1.30;;
14799;SDS011;7491;57.750;11.970;2024-01-16T16:24:50;1.43;;;0.80;;
14799;SDS011;7491;57.750;11.970;2024-01-16T16:27:21;2.50;;;1.07;;
14799;SDS011;7491;57.750;11.970;2024-01-16T16:29:48;1.97;;;1.40;;
14799;SDS011;7491;57.750;11.970;2024-01-16T16:32:16;1.20;;;0.93;;
14799;SDS011;7491;57.750;11.970;2024-01-16T16:34:43;1.07;;;0.90;;
14799;SDS011;7491;57.750;11.970;2024-01-16T16:37:10;0.70;;;0.63;;
14799;SDS011;7491;57.750;11.970;2024-01-16T16:39:39;3.43;;;1.30;;
14799;SDS011;7491;57.750;11.970;2024-01-16T16:42:05;2.90;;;1.13;;
14799;SDS011;7491;57.750;11.970;2024-01-16T16:44:32;1.10;;;1.00;;
14799;SDS011;7491;57.750;11.970;2024-01-16T16:46:59;0.93;;;0.93;;
14799;SDS011;7491;57.750;11.970;2024-01-16T16:49:27;0.97;;;0.63;;
14799;SDS011;7491;57.750;11.970;2024-01-16T16:51:54;1.30;;;0.70;;
14799;SDS011;7491;57.750;11.970;2024-01-16T16:54:20;1.60;;;1.40;;
14799;SDS011;7491;57.750;11.970;2024-01-16T16:56:47;2.07;;;1.30;;
14799;SDS011;7491;57.750;11.970;2024-01-16T16:59:13;1.70;;;1.13;;
14799;SDS011;7491;57.750;11.970;2024-01-16T17:01:41;3.70;;;1.57;;
14799;SDS011;7491;57.750;11.970;2024-01-16T17:04:08;3.17;;;2.00;;
14799;SDS011;7491;57.750;11.970;2024-01-16T17:06:35;1.47;;;1.13;;
14799;SDS011;7491;57.750;11.970;2024-01-16T17:09:02;2.33;;;1.30;;
14799;SDS011;7491;57.750;11.970;2024-01-16T17:11:31;2.30;;;1.13;;
14799;SDS011;7491;57.750;11.970;2024-01-16T17:13:58;2.87;;;0.80;;
14799;SDS011;7491;57.750;11.970;2024-01-16T17:16:25;2.00;;;1.10;;
14799;SDS011;7491;57.750;11.970;2024-01-16T17:18:53;1.93;;;1.20;;
14799;SDS011;7491;57.750;11.970;2024-01-16T17:21:19;1.23;;;1.10;;
14799;SDS011;7491;57.750;11.970;2024-01-16T17:23:47;1.37;;;1.13;;
14799;SDS011;7491;57.750;11.970;2024-01-16T17:26:13;2.73;;;1.40;;
14799;SDS011;7491;57.750;11.970;2024-01-16T17:28:40;2.23;;;1.37;;
14799;SDS011;7491;57.750;11.970;2024-01-16T17:31:07;0.77;;;0.77;;
14799;SDS011;7491;57.750;11.970;2024-01-16T17:33:33;0.67;;;0.67;;
14799;SDS011;7491;57.750;11.970;2024-01-16T17:36:00;2.30;;;1.30;;
14799;SDS011;7491;57.750;11.970;2024-01-16T17:38:31;3.10;;;2.00;;
14799;SDS011;7491;57.750;11.970;2024-01-16T17:40:59;14.10;;;5.53;;
14799;SDS011;7491;57.750;11.970;2024-01-16T17:43:26;6.43;;;2.63;;
14799;SDS011;7491;57.750;11.970;2024-01-16T17:45:53;5.83;;;2.77;;
14799;SDS011;7491;57.750;11.970;2024-01-16T17:48:19;4.90;;;2.40;;
14799;SDS011;7491;57.750;11.970;2024-01-16T17:50:46;5.00;;;1.90;;
14799;SDS011;7491;57.750;11.970;2024-01-16T17:53:13;10.73;;;1.50;;
14799;SDS011;7491;57.750;11.970;2024-01-16T17:55:40;3.07;;;1.43;;
14799;SDS011;7491;57.750;11.970;2024-01-16T17:58:08;4.33;;;2.87;;
14799;SDS011;7491;57.750;11.970;2024-01-16T18:00:36;8.00;;;1.97;;
14799;SDS011;7491;57.750;11.970;2024-01-16T18:03:03;3.90;;;1.77;;
14799;SDS011;7491;57.750;11.970;2024-01-16T18:05:31;4.20;;;2.77;;
14799;SDS011;7491;57.750;11.970;2024-01-16T18:07:58;5.40;;;2.65;;
14799;SDS011;7491;57.750;11.970;2024-01-16T18:10:25;3.27;;;2.07;;
14799;SDS011;7491;57.750;11.970;2024-01-16T18:12:55;1.35;;;0.88;;
14799;SDS011;7491;57.750;11.970;2024-01-16T18:15:23;2.60;;;2.00;;
14799;SDS011;7491;57.750;11.970;2024-01-16T18:17:51;3.30;;;2.30;;
14799;SDS011;7491;57.750;11.970;2024-01-16T18:20:18;7.07;;;3.97;;
14799;SDS011;7491;57.750;11.970;2024-01-16T18:22:47;4.37;;;2.37;;
14799;SDS011;7491;57.750;11.970;2024-01-16T18:25:15;6.43;;;3.70;;
14799;SDS011;7491;57.750;11.970;2024-01-16T18:27:42;1.67;;;1.50;;
14799;SDS011;7491;57.750;11.970;2024-01-16T18:30:10;7.50;;;1.90;;
14799;SDS011;7491;57.750;11.970;2024-01-16T18:32:41;5.75;;;2.63;;
14799;SDS011;7491;57.750;11.970;2024-01-16T18:35:08;4.23;;;2.40;;
14799;SDS011;7491;57.750;11.970;2024-01-16T18:37:35;2.45;;;2.22;;
14799;SDS011;7491;57.750;11.970;2024-01-16T18:40:02;6.82;;;2.67;;
14799;SDS011;7491;57.750;11.970;2024-01-16T18:42:33;6.97;;;2.28;;
14799;SDS011;7491;57.750;11.970;2024-01-16T18:45:00;3.57;;;2.10;;
14799;SDS011;7491;57.750;11.970;2024-01-16T18:47:29;21.05;;;8.93;;
14799;SDS011;7491;57.750;11.970;2024-01-16T18:49:58;4.10;;;2.72;;
14799;SDS011;7491;57.750;11.970;2024-01-16T18:52:24;2.72;;;2.17;;
14799;SDS011;7491;57.750;11.970;2024-01-16T18:54:51;13.35;;;3.00;;
14799;SDS011;7491;57.750;11.970;2024-01-16T18:57:18;6.13;;;3.40;;
14799;SDS011;7491;57.750;11.970;2024-01-16T18:59:44;4.70;;;2.93;;
14799;SDS011;7491;57.750;11.970;2024-01-16T19:02:11;5.07;;;3.10;;
14799;SDS011;7491;57.750;11.970;2024-01-16T19:04:38;6.63;;;2.87;;
14799;SDS011;7491;57.750;11.970;2024-01-16T19:07:08;3.65;;;2.97;;
14799;SDS011;7491;57.750;11.970;2024-01-16T19:09:37;6.45;;;2.97;;
14799;SDS011;7491;57.750;11.970;2024-01-16T19:12:05;6.05;;;2.88;;
14799;SDS011;7491;57.750;11.970;2024-01-16T19:14:32;5.05;;;2.95;;
14799;SDS011;7491;57.750;11.970;2024-01-16T19:16:59;6.00;;;3.87;;
14799;SDS011;7491;57.750;11.970;2024-01-16T19:19:25;3.35;;;2.50;;
14799;SDS011;7491;57.750;11.970;2024-01-16T19:21:53;9.63;;;4.75;;
14799;SDS011;7491;57.750;11.970;2024-01-16T19:24:24;5.63;;;3.37;;
14799;SDS011;7491;57.750;11.970;2024-01-16T19:26:51;3.63;;;2.03;;
14799;SDS011;7491;57.750;11.970;2024-01-16T19:29:18;9.10;;;4.00;;
14799;SDS011;7491;57.750;11.970;2024-01-16T19:31:45;9.20;;;4.65;;
14799;SDS011;7491;57.750;11.970;2024-01-16T19:34:12;9.10;;;4.30;;
14799;SDS011;7491;57.750;11.970;2024-01-16T19:36:39;9.73;;;5.07;;
14799;SDS011;7491;57.750;11.970;2024-01-16T19:39:06;10.93;;;4.57;;
14799;SDS011;7491;57.750;11.970;2024-01-16T19:41:40;13.63;;;5.50;;
14799;SDS011;7491;57.750;11.970;2024-01-16T19:44:08;12.70;;;6.03;;
14799;SDS011;7491;57.750;11.970;2024-01-16T19:46:34;5.72;;;2.97;;
14799;SDS011;7491;57.750;11.970;2024-01-16T19:49:01;4.23;;;2.33;;
14799;SDS011;7491;57.750;11.970;2024-01-16T19:51:30;6.70;;;4.03;;
14799;SDS011;7491;57.750;11.970;2024-01-16T19:53:59;10.02;;;4.13;;
14799;SDS011;7491;57.750;11.970;2024-01-16T19:56:26;7.57;;;3.80;;
14799;SDS011;7491;57.750;11.970;2024-01-16T19:58:54;3.72;;;2.08;;
14799;SDS011;7491;57.750;11.970;2024-01-16T20:01:26;6.45;;;3.22;;
14799;SDS011;7491;57.750;11.970;2024-01-16T20:03:53;4.82;;;3.00;;
14799;SDS011;7491;57.750;11.970;2024-01-16T20:06:20;3.95;;;1.95;;
14799;SDS011;7491;57.750;11.970;2024-01-16T20:08:47;3.90;;;2.03;;
14799;SDS011;7491;57.750;11.970;2024-01-16T20:11:24;4.57;;;2.70;;
14799;SDS011;7491;57.750;11.970;2024-01-16T20:13:52;5.65;;;3.28;;
14799;SDS011;7491;57.750;11.970;2024-01-16T20:16:20;9.23;;;3.10;;
14799;SDS011;7491;57.750;11.970;2024-01-16T20:18:47;6.03;;;2.28;;
14799;SDS011;7491;57.750;11.970;2024-01-16T20:21:13;8.50;;;3.03;;
14799;SDS011;7491;57.750;11.970;2024-01-16T20:23:40;4.70;;;2.97;;
14799;SDS011;7491;57.750;11.970;2024-01-16T20:26:07;5.90;;;3.42;;
14799;SDS011;7491;57.750;11.970;2024-01-16T20:28:33;11.32;;;5.30;;
14799;SDS011;7491;57.750;11.970;2024-01-16T20:31:00;7.60;;;3.13;;
14799;SDS011;7491;57.750;11.970;2024-01-16T20:33:28;6.05;;;3.42;;
14799;SDS011;7491;57.750;11.970;2024-01-16T20:35:54;10.50;;;2.73;;
14799;SDS011;7491;57.750;11.970;2024-01-16T20:38:21;7.07;;;3.67;;
14799;SDS011;7491;57.750;11.970;2024-01-16T20:40:47;3.05;;;2.20;;
14799;SDS011;7491;57.750;11.970;2024-01-16T20:43:15;7.07;;;3.45;;
14799;SDS011;7491;57.750;11.970;2024-01-16T20:45:43;8.93;;;3.87;;
14799;SDS011;7491;57.750;11.970;2024-01-16T20:48:10;2.30;;;1.63;;
14799;SDS011;7491;57.750;11.970;2024-01-16T20:50:38;7.22;;;3.92;;
14799;SDS011;7491;57.750;11.970;2024-01-16T20:53:05;6.85;;;2.58;;
14799;SDS011;7491;57.750;11.970;2024-01-16T20:55:32;11.25;;;4.50;;
14799;SDS011;7491;57.750;11.970;2024-01-16T20:57:59;4.57;;;2.47;;
14799;SDS011;7491;57.750;11.970;2024-01-16T21:00:26;4.07;;;2.13;;
14799;SDS011;7491;57.750;11.970;2024-01-16T21:02:58;8.43;;;4.03;;
14799;SDS011;7491;57.750;11.970;2024-01-16T21:05:25;4.05;;;2.35;;
14799;SDS011;7491;57.750;11.970;2024-01-16T21:07:53;8.57;;;4.37;;
14799;SDS011;7491;57.750;11.970;2024-01-16T21:10:20;2.78;;;2.28;;
14799;SDS011;7491;57.750;11.970;2024-01-16T21:12:47;7.50;;;3.30;;
14799;SDS011;7491;57.750;11.970;2024-01-16T21:15:14;10.20;;;5.78;;
14799;SDS011;7491;57.750;11.970;2024-01-16T21:17:40;9.07;;;3.50;;
14799;SDS011;7491;57.750;11.970;2024-01-16T21:20:07;15.37;;;6.57;;
14799;SDS011;7491;57.750;11.970;2024-01-16T21:22:34;11.77;;;3.27;;
14799;SDS011;7491;57.750;11.970;2024-01-16T21:25:02;6.32;;;2.72;;
14799;SDS011;7491;57.750;11.970;2024-01-16T21:27:30;6.73;;;2.70;;
14799;SDS011;7491;57.750;11.970;2024-01-16T21:29:57;10.60;;;6.10;;
14799;SDS011;7491;57.750;11.970;2024-01-16T21:32:23;9.27;;;4.15;;
14799;SDS011;7491;57.750;11.970;2024-01-16T21:34:50;8.37;;;3.90;;
14799;SDS011;7491;57.750;11.970;2024-01-16T21:37:17;5.35;;;3.20;;
14799;SDS011;7491;57.750;11.970;2024-01-16T21:39:43;6.37;;;3.53;;
14799;SDS011;7491;57.750;11.970;2024-01-16T21:42:11;11.27;;;3.78;;
14799;SDS011;7491;57.750;11.970;2024-01-16T21:44:38;13.48;;;2.95;;
14799;SDS011;7491;57.750;11.970;2024-01-16T21:47:05;7.63;;;4.10;;
14799;SDS011;7491;57.750;11.970;2024-01-16T21:49:32;3.75;;;1.85;;
14799;SDS011;7491;57.750;11.970;2024-01-16T21:51:58;7.47;;;3.33;;
14799;SDS011;7491;57.750;11.970;2024-01-16T21:54:26;5.10;;;3.23;;
14799;SDS011;7491;57.750;11.970;2024-01-16T21:56:55;9.57;;;3.80;;
14799;SDS011;7491;57.750;11.970;2024-01-16T21:59:23;7.43;;;3.37;;
14799;SDS011;7491;57.750;11.970;2024-01-16T22:01:50;9.82;;;3.58;;
14799;SDS011;7491;57.750;11.970;2024-01-16T22:04:17;3.92;;;2.22;;
14799;SDS011;7491;57.750;11.970;2024-01-16T22:06:43;10.25;;;3.88;;
14799;SDS011;7491;57.750;11.970;2024-01-16T22:09:10;6.57;;;3.63;;
14799;SDS011;7491;57.750;11.970;2024-01-16T22:11:39;4.83;;;2.77;;
14799;SDS011;7491;57.750;11.970;2024-01-16T22:14:06;3.63;;;1.65;;
14799;SDS011;7491;57.750;11.970;2024-01-16T22:16:34;5.35;;;3.17;;
14799;SDS011;7491;57.750;11.970;2024-01-16T22:19:00;5.50;;;2.83;;
14799;SDS011;7491;57.750;11.970;2024-01-16T22:21:28;6.70;;;4.03;;
14799;SDS011;7491;57.750;11.970;2024-01-16T22:23:54;15.15;;;8.00;;
14799;SDS011;7491;57.750;11.970;2024-01-16T22:26:21;7.72;;;4.18;;
14799;SDS011;7491;57.750;11.970;2024-01-16T22:28:47;23.85;;;11.70;;
14799;SDS011;7491;57.750;11.970;2024-01-16T22:31:14;12.93;;;5.67;;
14799;SDS011;7491;57.750;11.970;2024-01-16T22:33:42;7.13;;;4.50;;
14799;SDS011;7491;57.750;11.970;2024-01-16T22:36:09;15.00;;;8.45;;
14799;SDS011;7491;57.750;11.970;2024-01-16T22:38:36;7.00;;;3.83;;
14799;SDS011;7491;57.750;11.970;2024-01-16T22:41:03;10.40;;;3.58;;
14799;SDS011;7491;57.750;11.970;2024-01-16T22:43:30;10.02;;;3.33;;
14799;SDS011;7491;57.750;11.970;2024-01-16T22:45:57;10.45;;;3.88;;
14799;SDS011;7491;57.750;11.970;2024-01-16T22:48:24;5.20;;;3.53;;
14799;SDS011;7491;57.750;11.970;2024-01-16T22:50:52;8.60;;;2.60;;
14799;SDS011;7491;57.750;11.970;2024-01-16T22:53:18;7.45;;;2.42;;
14799;SDS011;7491;57.750;11.970;2024-01-16T22:55:47;9.90;;;2.13;;
14799;SDS011;7491;57.750;11.970;2024-01-16T22:58:14;7.10;;;2.90;;
14799;SDS011;7491;57.750;11.970;2024-01-16T23:00:41;10.32;;;2.65;;
14799;SDS011;7491;57.750;11.970;2024-01-16T23:03:08;8.40;;;2.40;;
14799;SDS011;7491;57.750;11.970;2024-01-16T23:05:36;5.30;;;1.95;;
14799;SDS011;7491;57.750;11.970;2024-01-16T23:08:05;12.40;;;2.90;;
14799;SDS011;7491;57.750;11.970;2024-01-16T23:10:34;5.72;;;1.20;;
14799;SDS011;7491;57.750;11.970;2024-01-16T23:13:01;8.95;;;3.50;;
14799;SDS011;7491;57.750;11.970;2024-01-16T23:15:27;8.65;;;2.72;;
14799;SDS011;7491;57.750;11.970;2024-01-16T23:17:54;12.10;;;2.25;;
14799;SDS011;7491;57.750;11.970;2024-01-16T23:20:21;8.20;;;2.67;;
14799;SDS011;7491;57.750;11.970;2024-01-16T23:22:48;7.95;;;2.50;;
14799;SDS011;7491;57.750;11.970;2024-01-16T23:25:16;11.85;;;3.53;;
14799;SDS011;7491;57.750;11.970;2024-01-16T23:27:43;9.88;;;2.63;;
14799;SDS011;7491;57.750;11.970;2024-01-16T23:30:10;5.15;;;2.45;;
14799;SDS011;7491;57.750;11.970;2024-01-16T23:32:37;13.48;;;2.70;;
14799;SDS011;7491;57.750;11.970;2024-01-16T23:35:04;6.05;;;2.42;;
14799;SDS011;7491;57.750;11.970;2024-01-16T23:37:31;4.45;;;2.25;;
14799;SDS011;7491;57.750;11.970;2024-01-16T23:39:58;7.55;;;2.20;;
14799;SDS011;7491;57.750;11.970;2024-01-16T23:42:27;8.23;;;2.92;;
14799;SDS011;7491;57.750;11.970;2024-01-16T23:44:56;9.02;;;2.60;;
14799;SDS011;7491;57.750;11.970;2024-01-16T23:47:25;10.27;;;2.65;;
14799;SDS011;7491;57.750;11.970;2024-01-16T23:49:51;7.97;;;2.50;;
14799;SDS011;7491;57.750;11.970;2024-01-16T23:52:18;7.25;;;2.83;;
14799;SDS011;7491;57.750;11.970;2024-01-16T23:54:45;9.55;;;2.35;;
14799;SDS011;7491;57.750;11.970;2024-01-16T23:57:12;9.50;;;3.50;;
14799;SDS011;7491;57.750;11.970;2024-01-16T23:59:40;10.75;;;3.35;;
